Pagina principale
METAR-TAF:

METAR-TAF

Aeroporti :

Aeroporto Internazionale di Khartum

Khartum, Sudan

latitudine: 15-36N, longitudine: 032-33E, altezza: 382 m

Osservazione

Il bollettino è stato emesso 30 minuti fa, alle 23:00 UTC
Vento 10 kt da nord/nord-ovest
Temperature 22°C
Umidità 25%
Pressione 1013 hPa

METAR: HSSS 092300Z 33010KT CAV OK 22/01 Q1013 NOSIG

Ora: 01:30 (23:30 UTC)

Previsione

Il bollettino è stato emesso 6 ore e 30 minuti fa, alle 17:00 UTC
Previsione valida dal 09 alle 18 UTC al 10 alle 24 UTC
Vento 10 kt da nord/nord-est con raffiche fino a 20 kt
Visibilità 10 km o più
nessuna nube inferiore a 1500 m e nessun cumulonembo

TAF: HSSS 091700Z 0918/1024 02010G20KT CAVOK

Osservazioni e previsioni meteorologiche di più di 4000 aeroporti (messaggi METAR e TAF).

Le stazioni disponibili sono rappresentate dai dischi gialli e rossi sulla carta.

Puntare il mouse per vedere il nome della stazione.

Clicca sopra per visualizzare le osservazioni e previsioni meteorologiche.

Per cambiare la mappa : fare clic sui pulsanti verdi con una croce nera per ingrandire, il pulsante verde con un trattino per diminuire, o sulla freccia verde per le mappe adiacenti.


METAR-TAF: